createdAt,value
2018-12-05T00:00:09.979Z,6.7
2018-12-05T00:00:36.149Z,6.74
2018-12-05T00:01:02.256Z,6.75
2018-12-05T00:01:28.369Z,6.69
2018-12-05T00:01:54.469Z,6.63
2018-12-05T00:02:20.576Z,6.67
2018-12-05T00:02:46.689Z,6.75
2018-12-05T00:03:12.805Z,6.63
2018-12-05T00:03:38.924Z,6.75
2018-12-05T00:04:05.026Z,6.56
2018-12-05T00:04:31.167Z,6.67
2018-12-05T00:04:57.274Z,6.72
2018-12-05T00:05:23.381Z,6.6
2018-12-05T00:05:49.495Z,6.64
2018-12-05T00:06:15.604Z,6.72
2018-12-05T00:06:41.747Z,6.72
2018-12-05T00:07:07.847Z,6.6
2018-12-05T00:07:33.952Z,6.6
2018-12-05T00:08:00.118Z,6.56
2018-12-05T00:08:26.254Z,6.57
2018-12-05T00:08:52.389Z,6.72
2018-12-05T00:09:18.493Z,6.7
2018-12-05T00:09:44.601Z,6.63
2018-12-05T00:10:10.718Z,6.7
2018-12-05T00:10:36.834Z,6.7
2018-12-05T00:11:02.982Z,6.72
2018-12-05T00:11:29.092Z,6.72
2018-12-05T00:11:55.201Z,6.64
2018-12-05T00:12:21.302Z,6.66
2018-12-05T00:12:47.418Z,6.6
2018-12-05T00:13:13.552Z,6.75
2018-12-05T00:13:39.671Z,6.72
2018-12-05T00:14:05.803Z,6.75
2018-12-05T00:14:31.946Z,6.82
2018-12-05T00:14:58.054Z,6.74
2018-12-05T00:15:24.173Z,6.79
2018-12-05T00:15:50.373Z,6.78
2018-12-05T00:16:16.476Z,6.89
2018-12-05T00:16:42.578Z,6.92
2018-12-05T00:17:08.741Z,6.87
2018-12-05T00:17:34.866Z,6.79
2018-12-05T00:18:01.052Z,6.79
2018-12-05T00:18:27.207Z,6.72
2018-12-05T00:18:53.354Z,6.66
2018-12-05T00:19:19.458Z,6.72
2018-12-05T00:19:45.628Z,6.7
2018-12-05T00:20:11.734Z,6.74
2018-12-05T00:20:37.845Z,6.72
2018-12-05T00:21:03.947Z,6.72
2018-12-05T00:21:30.090Z,6.64
2018-12-05T00:21:56.191Z,6.62
2018-12-05T00:22:22.324Z,6.74
2018-12-05T00:22:48.452Z,6.69
2018-12-05T00:23:14.569Z,6.54
2018-12-05T00:23:40.680Z,6.6
2018-12-05T00:24:06.817Z,6.74
2018-12-05T00:24:32.930Z,6.75
2018-12-05T00:24:59.024Z,6.74
2018-12-05T00:25:25.171Z,6.79
2018-12-05T00:25:51.286Z,6.84
2018-12-05T00:26:17.376Z,6.79
2018-12-05T00:26:43.499Z,6.78
2018-12-05T00:27:09.644Z,6.81
2018-12-05T00:27:35.747Z,6.75
2018-12-05T00:28:01.861Z,6.7
2018-12-05T00:28:27.957Z,6.75
2018-12-05T00:28:54.065Z,6.7
2018-12-05T00:29:20.192Z,6.69
2018-12-05T00:29:46.324Z,6.7
2018-12-05T00:30:12.463Z,6.64
2018-12-05T00:30:38.612Z,6.62
2018-12-05T00:31:04.798Z,6.72
2018-12-05T00:31:30.873Z,6.62
2018-12-05T00:31:56.986Z,6.64
2018-12-05T00:32:23.118Z,6.77
2018-12-05T00:32:49.242Z,6.75
2018-12-05T00:33:15.345Z,6.64
2018-12-05T00:33:41.459Z,6.74
2018-12-05T00:34:07.583Z,6.69
2018-12-05T00:34:33.700Z,6.74
2018-12-05T00:34:59.803Z,6.72
2018-12-05T00:35:25.926Z,6.62
2018-12-05T00:35:52.041Z,6.59
2018-12-05T00:36:18.146Z,6.67
2018-12-05T00:36:44.252Z,6.74
2018-12-05T00:37:10.373Z,6.75
2018-12-05T00:37:36.496Z,6.72
2018-12-05T00:38:02.621Z,6.7
2018-12-05T00:38:28.786Z,6.72
2018-12-05T00:38:54.923Z,6.6
2018-12-05T00:39:21.025Z,6.63
2018-12-05T00:39:48.091Z,6.57
2018-12-05T00:40:14.279Z,6.62
2018-12-05T00:40:40.390Z,6.62
2018-12-05T00:41:06.502Z,6.59
2018-12-05T00:41:32.622Z,6.63
2018-12-05T00:41:58.726Z,6.6
2018-12-05T00:42:24.834Z,6.62
2018-12-05T00:42:50.974Z,6.56
2018-12-05T00:43:17.089Z,6.56
2018-12-05T00:43:43.180Z,6.63
2018-12-05T00:44:09.289Z,6.6
2018-12-05T00:44:35.409Z,6.67
2018-12-05T00:45:01.514Z,6.62
2018-12-05T00:45:27.677Z,6.6
2018-12-05T00:45:53.830Z,6.57
2018-12-05T00:46:19.956Z,6.57
2018-12-05T00:46:46.065Z,6.57
2018-12-05T00:47:12.205Z,6.56
2018-12-05T00:47:38.315Z,6.62
2018-12-05T00:48:04.435Z,6.54
2018-12-05T00:48:30.535Z,6.57
2018-12-05T00:48:56.677Z,6.56
2018-12-05T00:49:22.784Z,6.6
2018-12-05T00:49:48.921Z,6.64
2018-12-05T00:50:15.141Z,6.59
2018-12-05T00:50:41.275Z,6.6
2018-12-05T00:51:07.379Z,6.6
2018-12-05T00:51:33.492Z,6.75
2018-12-05T00:51:59.598Z,6.56
2018-12-05T00:52:25.741Z,6.56
2018-12-05T00:52:51.871Z,6.72
2018-12-05T00:53:17.983Z,6.74
2018-12-05T00:53:44.095Z,6.7
2018-12-05T00:54:10.200Z,6.6
2018-12-05T00:54:36.323Z,6.54
2018-12-05T00:55:02.436Z,6.69
2018-12-05T00:55:28.541Z,6.72
2018-12-05T00:55:54.657Z,6.69
2018-12-05T00:56:20.779Z,6.67
2018-12-05T00:56:46.888Z,6.69
2018-12-05T00:57:13.002Z,6.69
2018-12-05T00:57:39.114Z,6.74
2018-12-05T00:58:05.213Z,6.66
2018-12-05T00:58:31.349Z,6.6
2018-12-05T00:58:57.475Z,6.7
2018-12-05T00:59:23.626Z,6.7
2018-12-05T00:59:49.727Z,6.64
2018-12-05T01:00:15.873Z,6.74
2018-12-05T01:00:41.978Z,6.87
2018-12-05T01:01:08.095Z,6.78
2018-12-05T01:01:34.208Z,6.79
2018-12-05T01:02:00.366Z,6.87
2018-12-05T01:02:26.535Z,6.81
2018-12-05T01:02:52.601Z,6.92
2018-12-05T01:03:18.685Z,6.78
2018-12-05T01:03:44.791Z,6.81
2018-12-05T01:04:10.902Z,6.81
2018-12-05T01:04:37.022Z,6.87
2018-12-05T01:05:03.142Z,6.85
2018-12-05T01:05:29.238Z,6.92
2018-12-05T01:05:55.348Z,6.85
2018-12-05T01:06:21.450Z,6.84
2018-12-05T01:06:47.569Z,6.93
2018-12-05T01:07:13.715Z,6.88
2018-12-05T01:07:39.843Z,6.89
2018-12-05T01:08:05.953Z,6.92
2018-12-05T01:08:32.060Z,6.88
2018-12-05T01:08:58.217Z,6.89
2018-12-05T01:09:24.315Z,6.85
2018-12-05T01:09:50.449Z,6.79
2018-12-05T01:10:16.563Z,6.82
2018-12-05T01:10:42.676Z,6.84
2018-12-05T01:11:08.787Z,6.78
2018-12-05T01:11:34.920Z,6.77
2018-12-05T01:12:01.018Z,6.84
2018-12-05T01:12:27.120Z,6.78
2018-12-05T01:12:53.239Z,6.78
2018-12-05T01:13:19.343Z,6.84
2018-12-05T01:13:45.462Z,6.79
2018-12-05T01:14:11.567Z,6.93
2018-12-05T01:14:37.677Z,6.85
2018-12-05T01:15:04.407Z,6.87
2018-12-05T01:15:30.559Z,6.95
2018-12-05T01:15:56.651Z,6.85
2018-12-05T01:16:22.758Z,6.88
2018-12-05T01:16:48.872Z,6.95
2018-12-05T01:17:15.019Z,6.92
2018-12-05T01:17:41.137Z,6.88
2018-12-05T01:18:07.232Z,6.89
2018-12-05T01:18:33.390Z,6.93
2018-12-05T01:18:59.521Z,6.88
2018-12-05T01:19:25.627Z,6.87
2018-12-05T01:19:51.729Z,6.89
2018-12-05T01:20:17.847Z,6.89
2018-12-05T01:20:43.957Z,6.88
2018-12-05T01:21:10.075Z,6.78
2018-12-05T01:21:36.191Z,6.78
2018-12-05T01:22:02.301Z,6.75
2018-12-05T01:22:28.458Z,6.78
2018-12-05T01:22:54.593Z,6.78
2018-12-05T01:23:20.702Z,6.85
2018-12-05T01:23:46.828Z,6.78
2018-12-05T01:24:12.948Z,6.81
2018-12-05T01:24:39.090Z,6.81
2018-12-05T01:25:05.195Z,6.77
2018-12-05T01:25:31.313Z,6.75
2018-12-05T01:25:57.460Z,6.7
2018-12-05T01:26:23.592Z,6.6
2018-12-05T01:26:49.697Z,6.59
2018-12-05T01:27:15.804Z,6.7
2018-12-05T01:27:41.919Z,6.72
2018-12-05T01:28:08.062Z,6.7
2018-12-05T01:28:34.168Z,6.59
2018-12-05T01:29:00.274Z,6.57
2018-12-05T01:29:26.375Z,6.74
2018-12-05T01:29:52.479Z,6.66
2018-12-05T01:30:18.597Z,6.6
2018-12-05T01:30:44.805Z,6.57
2018-12-05T01:31:10.883Z,6.64
2018-12-05T01:31:36.977Z,6.6
2018-12-05T01:32:03.077Z,6.6
2018-12-05T01:32:29.195Z,6.66
2018-12-05T01:32:55.318Z,6.75
2018-12-05T01:33:21.668Z,6.74
2018-12-05T01:33:47.820Z,6.72
2018-12-05T01:34:13.953Z,6.79
2018-12-05T01:34:40.050Z,6.79
2018-12-05T01:35:06.158Z,6.7
2018-12-05T01:35:32.263Z,6.72
2018-12-05T01:35:58.413Z,6.72
2018-12-05T01:36:24.513Z,6.67
2018-12-05T01:36:50.639Z,6.6
2018-12-05T01:37:16.748Z,6.67
2018-12-05T01:37:42.889Z,6.64
2018-12-05T01:38:08.978Z,6.66
2018-12-05T01:38:35.089Z,6.66
2018-12-05T01:39:01.195Z,6.74
2018-12-05T01:39:27.312Z,6.6
2018-12-05T01:39:53.416Z,6.72
2018-12-05T01:40:19.592Z,6.72
2018-12-05T01:40:45.677Z,6.72
2018-12-05T01:41:11.808Z,6.69
2018-12-05T01:41:37.964Z,6.6
2018-12-05T01:42:04.097Z,6.7
2018-12-05T01:42:30.249Z,6.74
2018-12-05T01:42:56.371Z,6.72
2018-12-05T01:43:22.479Z,6.74
2018-12-05T01:43:48.584Z,6.72
2018-12-05T01:44:14.705Z,6.74
2018-12-05T01:44:40.818Z,6.79
2018-12-05T01:45:06.909Z,6.78
2018-12-05T01:45:33.041Z,6.67
2018-12-05T01:45:59.143Z,6.7
2018-12-05T01:46:25.265Z,6.62
2018-12-05T01:46:51.355Z,6.6
2018-12-05T01:47:17.470Z,6.69
2018-12-05T01:47:43.599Z,6.78
2018-12-05T01:48:09.743Z,6.72
2018-12-05T01:48:35.848Z,6.64
2018-12-05T01:49:01.958Z,6.7
2018-12-05T01:49:28.064Z,6.64
2018-12-05T01:49:54.204Z,6.69
2018-12-05T01:50:20.310Z,6.7
2018-12-05T01:50:46.427Z,6.62
2018-12-05T01:51:12.521Z,6.62
2018-12-05T01:51:38.621Z,6.56
2018-12-05T01:52:04.740Z,6.56
2018-12-05T01:52:30.854Z,6.72
2018-12-05T01:52:56.984Z,6.62
2018-12-05T01:53:23.133Z,6.69
2018-12-05T01:53:49.250Z,6.75
2018-12-05T01:54:15.353Z,6.7
2018-12-05T01:54:41.460Z,6.66
2018-12-05T01:55:07.585Z,6.7
2018-12-05T01:55:33.680Z,6.67
2018-12-05T01:55:59.840Z,6.72
2018-12-05T01:56:25.944Z,6.67
2018-12-05T01:56:52.049Z,6.78
2018-12-05T01:57:18.163Z,6.79
2018-12-05T01:57:44.273Z,6.78
2018-12-05T01:58:10.397Z,6.7
2018-12-05T01:58:36.504Z,6.81
2018-12-05T01:59:02.622Z,6.78
2018-12-05T01:59:28.725Z,6.75
2018-12-05T01:59:54.882Z,6.77
2018-12-05T02:00:21.021Z,6.77
2018-12-05T02:00:47.118Z,6.77
2018-12-05T02:01:13.251Z,6.88
2018-12-05T02:01:39.415Z,6.77
2018-12-05T02:02:05.531Z,6.85
2018-12-05T02:02:31.662Z,6.84
2018-12-05T02:02:57.778Z,6.87
2018-12-05T02:03:23.916Z,6.92
2018-12-05T02:03:50.057Z,6.82
2018-12-05T02:04:16.162Z,6.88
2018-12-05T02:04:42.283Z,6.97
2018-12-05T02:05:08.462Z,6.88
2018-12-05T02:05:34.562Z,6.85
2018-12-05T02:06:00.708Z,6.84
2018-12-05T02:06:26.838Z,6.88
2018-12-05T02:06:52.944Z,6.88
2018-12-05T02:07:19.043Z,6.84
2018-12-05T02:07:45.163Z,6.84
2018-12-05T02:08:11.275Z,6.87
2018-12-05T02:08:37.383Z,6.72
2018-12-05T02:09:03.493Z,6.77
2018-12-05T02:09:29.598Z,6.75
2018-12-05T02:09:55.715Z,6.74
2018-12-05T02:10:21.811Z,6.66
2018-12-05T02:10:47.922Z,6.69
2018-12-05T02:11:14.064Z,6.63
2018-12-05T02:11:40.174Z,6.7
2018-12-05T02:12:06.301Z,6.72
2018-12-05T02:12:32.403Z,6.77
2018-12-05T02:12:58.522Z,6.74
2018-12-05T02:13:25.767Z,6.64
2018-12-05T02:13:51.754Z,6.7
2018-12-05T02:14:17.874Z,6.7
2018-12-05T02:14:43.991Z,6.75
2018-12-05T02:15:10.100Z,6.79
2018-12-05T02:15:36.224Z,6.69
2018-12-05T02:16:02.367Z,6.66
2018-12-05T02:16:28.478Z,6.59
2018-12-05T02:16:54.590Z,6.6
2018-12-05T02:17:20.744Z,6.63
2018-12-05T02:17:46.893Z,6.51
2018-12-05T02:18:12.998Z,6.44
2018-12-05T02:18:39.134Z,6.46
2018-12-05T02:19:05.244Z,6.45
2018-12-05T02:19:31.372Z,6.44
2018-12-05T02:19:57.477Z,6.41
2018-12-05T02:20:23.588Z,6.38
2018-12-05T02:20:49.687Z,6.36
2018-12-05T02:21:15.805Z,6.39
2018-12-05T02:21:41.906Z,6.39
2018-12-05T02:22:08.026Z,6.45
2018-12-05T02:22:34.133Z,6.44
2018-12-05T02:23:00.240Z,6.42
2018-12-05T02:23:26.428Z,6.46
2018-12-05T02:23:52.483Z,6.54
2018-12-05T02:24:18.590Z,6.44
2018-12-05T02:24:44.779Z,6.57
2018-12-05T02:25:10.853Z,6.52
2018-12-05T02:25:36.992Z,6.49
2018-12-05T02:26:03.144Z,6.54
2018-12-05T02:26:29.283Z,6.44
2018-12-05T02:26:55.441Z,6.49
2018-12-05T02:27:21.544Z,6.49
2018-12-05T02:27:47.681Z,6.51
2018-12-05T02:28:13.794Z,6.57
2018-12-05T02:28:39.897Z,6.57
2018-12-05T02:29:06.013Z,6.51
2018-12-05T02:29:32.118Z,6.54
2018-12-05T02:29:58.270Z,6.56
2018-12-05T02:30:24.435Z,6.49
2018-12-05T02:30:50.660Z,6.52
2018-12-05T02:31:16.769Z,6.52
2018-12-05T02:31:42.885Z,6.51
2018-12-05T02:32:08.992Z,6.56
2018-12-05T02:32:35.093Z,6.6
2018-12-05T02:33:01.248Z,6.57
2018-12-05T02:33:27.366Z,6.62
2018-12-05T02:33:53.476Z,6.59
2018-12-05T02:34:19.572Z,6.63
2018-12-05T02:34:45.688Z,6.63
2018-12-05T02:35:11.831Z,6.59
2018-12-05T02:35:37.944Z,6.6
2018-12-05T02:36:04.081Z,6.62
2018-12-05T02:36:30.229Z,6.6
2018-12-05T02:36:56.332Z,6.59
2018-12-05T02:37:22.474Z,6.54
2018-12-05T02:37:48.587Z,6.6
2018-12-05T02:38:14.694Z,6.57
2018-12-05T02:38:40.818Z,6.54
2018-12-05T02:39:06.948Z,6.54
2018-12-05T02:39:33.086Z,6.54
2018-12-05T02:39:59.243Z,6.56
2018-12-05T02:40:25.371Z,6.52
2018-12-05T02:40:51.486Z,6.51
2018-12-05T02:41:17.697Z,6.51
2018-12-05T02:41:43.800Z,6.48
2018-12-05T02:42:09.910Z,6.56
2018-12-05T02:42:36.037Z,6.51
2018-12-05T02:43:02.143Z,6.48
2018-12-05T02:43:28.246Z,6.52
2018-12-05T02:43:54.405Z,6.44
2018-12-05T02:44:20.512Z,6.38
2018-12-05T02:44:46.647Z,6.44
2018-12-05T02:45:13.164Z,6.49
2018-12-05T02:45:39.303Z,6.42
2018-12-05T02:46:05.442Z,6.49
2018-12-05T02:46:31.575Z,6.44
2018-12-05T02:46:57.708Z,6.45
2018-12-05T02:47:23.855Z,6.39
2018-12-05T02:47:50.009Z,6.3
2018-12-05T02:48:16.116Z,6.3
2018-12-05T02:48:42.275Z,6.31
2018-12-05T02:49:08.408Z,6.27
2018-12-05T02:49:34.520Z,6.24
2018-12-05T02:50:00.628Z,6.35
2018-12-05T02:50:26.758Z,6.3
2018-12-05T02:50:52.867Z,6.3
2018-12-05T02:51:18.968Z,6.35
2018-12-05T02:51:45.108Z,6.35
2018-12-05T02:52:11.239Z,6.3
2018-12-05T02:52:37.347Z,6.3
2018-12-05T02:53:03.466Z,6.33
2018-12-05T02:53:29.600Z,6.41
2018-12-05T02:53:55.704Z,6.35
2018-12-05T02:54:21.827Z,6.27
2018-12-05T02:54:47.932Z,6.28
2018-12-05T02:55:14.042Z,6.35
2018-12-05T02:55:40.167Z,6.26
2018-12-05T02:56:06.339Z,6.38
2018-12-05T02:56:32.466Z,6.22
2018-12-05T02:56:58.568Z,6.31
2018-12-05T02:57:24.699Z,6.27
2018-12-05T02:57:50.822Z,6.38
2018-12-05T02:58:16.931Z,6.22
2018-12-05T02:58:43.038Z,6.28
2018-12-05T02:59:09.167Z,6.27
2018-12-05T02:59:35.272Z,6.24
2018-12-05T03:00:01.381Z,6.22
2018-12-05T03:00:27.489Z,6.2
2018-12-05T03:00:53.594Z,6.35
2018-12-05T03:01:19.699Z,6.28
2018-12-05T03:01:45.799Z,6.35
2018-12-05T03:02:11.910Z,6.33
2018-12-05T03:02:38.012Z,6.35
2018-12-05T03:03:04.123Z,6.28
2018-12-05T03:03:30.228Z,6.35
2018-12-05T03:03:56.337Z,6.31
2018-12-05T03:04:22.437Z,6.35
2018-12-05T03:04:48.561Z,6.35
2018-12-05T03:05:14.702Z,6.26
2018-12-05T03:05:40.828Z,6.38
2018-12-05T03:06:06.969Z,6.36
2018-12-05T03:06:33.066Z,6.3
2018-12-05T03:06:59.197Z,6.31
2018-12-05T03:07:25.304Z,6.31
2018-12-05T03:07:51.431Z,6.22
2018-12-05T03:08:17.585Z,6.2
2018-12-05T03:08:43.713Z,6.27
2018-12-05T03:09:09.838Z,6.28
2018-12-05T03:09:36.024Z,6.19
2018-12-05T03:10:02.165Z,6.26
2018-12-05T03:10:28.295Z,6.24
2018-12-05T03:10:54.407Z,6.28
2018-12-05T03:11:20.512Z,6.31
2018-12-05T03:11:46.650Z,6.27
2018-12-05T03:12:12.749Z,6.22
2018-12-05T03:12:38.853Z,6.26
2018-12-05T03:13:04.958Z,6.28
2018-12-05T03:13:31.087Z,6.24
2018-12-05T03:13:57.189Z,6.28
2018-12-05T03:14:23.326Z,6.24
2018-12-05T03:14:49.435Z,6.27
2018-12-05T03:15:15.586Z,6.16
2018-12-05T03:15:41.702Z,6.12
2018-12-05T03:16:07.829Z,6.09
2018-12-05T03:16:34.000Z,6.07
2018-12-05T03:17:00.105Z,6.02
2018-12-05T03:17:26.207Z,5.97
2018-12-05T03:17:52.320Z,5.93
2018-12-05T03:18:18.449Z,5.9
2018-12-05T03:18:44.555Z,5.83
2018-12-05T03:19:10.656Z,5.87
2018-12-05T03:19:36.761Z,5.84
2018-12-05T03:20:02.870Z,5.79
2018-12-05T03:20:28.975Z,5.76
2018-12-05T03:20:55.080Z,5.75
2018-12-05T03:21:21.189Z,5.82
2018-12-05T03:21:47.317Z,5.69
2018-12-05T03:22:13.450Z,5.64
2018-12-05T03:22:39.557Z,5.64
2018-12-05T03:23:05.720Z,5.65
2018-12-05T03:23:31.874Z,5.64
2018-12-05T03:23:57.977Z,5.71
2018-12-05T03:24:24.082Z,5.68
2018-12-05T03:24:50.227Z,5.68
2018-12-05T03:25:16.371Z,5.57
2018-12-05T03:25:42.515Z,5.59
2018-12-05T03:26:08.615Z,5.56
2018-12-05T03:26:34.779Z,5.53
2018-12-05T03:27:00.909Z,5.51
2018-12-05T03:27:27.013Z,5.56
2018-12-05T03:27:53.174Z,5.38
2018-12-05T03:28:19.282Z,5.43
2018-12-05T03:28:45.385Z,5.41
2018-12-05T03:29:11.517Z,5.3
2018-12-05T03:29:37.619Z,5.35
2018-12-05T03:30:03.750Z,5.38
2018-12-05T03:30:29.942Z,5.36
2018-12-05T03:30:56.116Z,5.25
2018-12-05T03:31:22.243Z,5.21
2018-12-05T03:31:48.390Z,5.25
2018-12-05T03:32:14.586Z,5.18
2018-12-05T03:32:40.751Z,5.18
2018-12-05T03:33:06.909Z,5.18
2018-12-05T03:33:33.072Z,5.15
2018-12-05T03:33:59.228Z,5.21
2018-12-05T03:34:25.336Z,5.21
2018-12-05T03:34:51.465Z,5.04
2018-12-05T03:35:18.653Z,5.11
2018-12-05T03:35:43.741Z,5.11
2018-12-05T03:36:09.877Z,5.11
2018-12-05T03:36:36.014Z,5.11
2018-12-05T03:37:02.151Z,5.18
2018-12-05T03:37:28.314Z,5.1
2018-12-05T03:37:54.428Z,5.1
2018-12-05T03:38:20.535Z,5.04
2018-12-05T03:38:46.636Z,5.12
2018-12-05T03:39:12.747Z,5.12
2018-12-05T03:39:38.855Z,5.18
2018-12-05T03:40:05.010Z,5.04
2018-12-05T03:40:31.120Z,5.12
2018-12-05T03:40:57.219Z,5.18
2018-12-05T03:41:23.356Z,5.2
2018-12-05T03:41:49.459Z,5.17
2018-12-05T03:42:15.594Z,5.12
2018-12-05T03:42:41.692Z,5.07
2018-12-05T03:43:07.796Z,5.11
2018-12-05T03:43:33.929Z,5.1
2018-12-05T03:44:00.063Z,5.05
2018-12-05T03:44:26.191Z,5.02
2018-12-05T03:44:52.324Z,5.1
2018-12-05T03:45:18.512Z,5.14
2018-12-05T03:45:44.617Z,5.2
2018-12-05T03:46:10.719Z,5.12
2018-12-05T03:46:36.837Z,5.12
2018-12-05T03:47:02.988Z,5.18
2018-12-05T03:47:29.094Z,5.2
2018-12-05T03:47:55.228Z,5.21
2018-12-05T03:48:21.338Z,5.17
2018-12-05T03:48:47.471Z,5.21
2018-12-05T03:49:13.571Z,5.21
2018-12-05T03:49:39.673Z,5.33
2018-12-05T03:50:05.774Z,5.32
2018-12-05T03:50:31.911Z,5.33
2018-12-05T03:50:58.045Z,5.38
2018-12-05T03:51:24.164Z,5.41
2018-12-05T03:51:50.266Z,5.35
2018-12-05T03:52:16.382Z,5.44
2018-12-05T03:52:42.538Z,5.51
2018-12-05T03:53:08.672Z,5.51
2018-12-05T03:53:34.779Z,5.54
2018-12-05T03:54:00.874Z,5.54
2018-12-05T03:54:27.006Z,5.56
2018-12-05T03:54:53.136Z,5.48
2018-12-05T03:55:20.158Z,5.57
2018-12-05T03:55:46.302Z,5.54
2018-12-05T03:56:12.407Z,5.54
2018-12-05T03:56:38.538Z,5.53
2018-12-05T03:57:04.668Z,5.64
2018-12-05T03:57:30.785Z,5.61
2018-12-05T03:57:56.911Z,5.64
2018-12-05T03:58:23.019Z,5.68
2018-12-05T03:58:49.150Z,5.66
2018-12-05T03:59:15.258Z,5.65
2018-12-05T03:59:41.358Z,5.71
2018-12-05T04:00:07.494Z,5.72
2018-12-05T04:00:33.629Z,5.64
2018-12-05T04:00:59.730Z,5.61
2018-12-05T04:01:25.833Z,5.61
2018-12-05T04:01:51.933Z,5.62
2018-12-05T04:02:18.034Z,5.68
2018-12-05T04:02:44.173Z,5.62
2018-12-05T04:03:10.275Z,5.68
2018-12-05T04:03:36.383Z,5.65
2018-12-05T04:04:02.482Z,5.68
2018-12-05T04:04:28.620Z,5.66
2018-12-05T04:04:54.759Z,5.65
2018-12-05T04:05:20.856Z,5.61
2018-12-05T04:05:46.959Z,5.56
2018-12-05T04:06:13.094Z,5.59
2018-12-05T04:06:39.204Z,5.57
2018-12-05T04:07:05.302Z,5.57
2018-12-05T04:07:31.416Z,5.51
2018-12-05T04:07:57.516Z,5.62
2018-12-05T04:08:23.618Z,5.59
2018-12-05T04:08:49.724Z,5.66
2018-12-05T04:09:15.830Z,5.61
2018-12-05T04:09:41.967Z,5.66
2018-12-05T04:10:08.152Z,5.66
2018-12-05T04:10:34.197Z,5.65
2018-12-05T04:11:00.301Z,5.69
2018-12-05T04:11:26.431Z,5.79
2018-12-05T04:11:52.543Z,5.66
2018-12-05T04:12:18.725Z,5.65
2018-12-05T04:12:46.187Z,5.66
2018-12-05T04:13:12.288Z,5.68
2018-12-05T04:13:38.429Z,5.66
2018-12-05T04:14:04.562Z,5.69
2018-12-05T04:14:30.671Z,5.66
2018-12-05T04:14:56.766Z,5.69
2018-12-05T04:15:22.892Z,5.64
2018-12-05T04:15:48.997Z,5.68
2018-12-05T04:16:15.133Z,5.68
2018-12-05T04:16:41.264Z,5.73
2018-12-05T04:17:07.376Z,5.72
2018-12-05T04:17:33.477Z,5.69
2018-12-05T04:17:59.612Z,5.72
2018-12-05T04:18:25.721Z,5.71
2018-12-05T04:18:51.825Z,5.66
2018-12-05T04:19:17.924Z,5.69
2018-12-05T04:19:44.019Z,5.69
2018-12-05T04:20:10.126Z,5.62
2018-12-05T04:20:36.226Z,5.71
2018-12-05T04:21:02.328Z,5.66
2018-12-05T04:21:28.455Z,5.72
2018-12-05T04:21:54.566Z,5.64
2018-12-05T04:22:20.713Z,5.83
2018-12-05T04:22:46.816Z,5.69
2018-12-05T04:23:12.933Z,5.72
2018-12-05T04:23:40.024Z,5.72
2018-12-05T04:24:06.143Z,5.66
2018-12-05T04:24:32.240Z,5.71
2018-12-05T04:24:58.376Z,5.71
2018-12-05T04:25:24.501Z,5.71
2018-12-05T04:25:50.611Z,5.68
2018-12-05T04:26:16.741Z,5.73
2018-12-05T04:26:42.855Z,5.71
2018-12-05T04:27:08.949Z,5.75
2018-12-05T04:27:35.061Z,5.69
2018-12-05T04:28:01.184Z,5.68
2018-12-05T04:28:27.342Z,5.71
2018-12-05T04:28:53.446Z,5.75
2018-12-05T04:29:19.542Z,5.66
2018-12-05T04:29:45.649Z,5.69
2018-12-05T04:30:11.761Z,5.68
2018-12-05T04:30:37.885Z,5.65
2018-12-05T04:31:03.985Z,5.66
2018-12-05T04:31:30.093Z,5.66
2018-12-05T04:31:56.229Z,5.62
2018-12-05T04:32:22.364Z,5.62
2018-12-05T04:32:48.485Z,5.62
2018-12-05T04:33:14.594Z,5.72
2018-12-05T04:33:40.731Z,5.65
2018-12-05T04:34:06.835Z,5.66
2018-12-05T04:34:32.940Z,5.65
2018-12-05T04:34:59.065Z,5.69
2018-12-05T04:35:25.174Z,5.66
2018-12-05T04:35:51.280Z,5.64
2018-12-05T04:36:17.393Z,5.57
2018-12-05T04:36:43.518Z,5.53
2018-12-05T04:37:09.626Z,5.51
2018-12-05T04:37:35.751Z,5.57
2018-12-05T04:38:02.837Z,5.46
2018-12-05T04:38:28.943Z,5.48
2018-12-05T04:38:55.075Z,5.47
2018-12-05T04:39:21.176Z,5.57
2018-12-05T04:39:47.350Z,5.5
2018-12-05T04:40:13.455Z,5.51
2018-12-05T04:40:39.569Z,5.54
2018-12-05T04:41:05.660Z,5.5
2018-12-05T04:41:31.822Z,5.5
2018-12-05T04:41:57.919Z,5.46
2018-12-05T04:42:24.023Z,5.53
2018-12-05T04:42:50.125Z,5.35
2018-12-05T04:43:16.261Z,5.36
2018-12-05T04:43:42.413Z,5.39
2018-12-05T04:44:08.548Z,5.38
2018-12-05T04:44:34.682Z,5.41
2018-12-05T04:45:00.792Z,5.35
2018-12-05T04:45:26.884Z,5.35
2018-12-05T04:45:53.002Z,5.33
2018-12-05T04:46:19.127Z,5.36
2018-12-05T04:46:45.292Z,5.38
2018-12-05T04:47:11.423Z,5.41
2018-12-05T04:47:37.527Z,5.41
2018-12-05T04:48:03.681Z,5.38
2018-12-05T04:48:29.789Z,5.41
2018-12-05T04:48:55.916Z,5.35
2018-12-05T04:49:22.017Z,5.41
2018-12-05T04:49:48.150Z,5.35
2018-12-05T04:50:14.256Z,5.36
2018-12-05T04:50:40.358Z,5.33
2018-12-05T04:51:06.472Z,5.36
2018-12-05T04:51:32.569Z,5.46
2018-12-05T04:51:58.676Z,5.5
2018-12-05T04:52:24.784Z,5.51
2018-12-05T04:52:50.890Z,5.47
2018-12-05T04:53:17.020Z,5.47
2018-12-05T04:53:43.124Z,5.48
2018-12-05T04:54:09.262Z,5.54
2018-12-05T04:54:35.366Z,5.47
2018-12-05T04:55:01.471Z,5.35
2018-12-05T04:55:27.583Z,5.46
2018-12-05T04:55:53.713Z,5.33
2018-12-05T04:56:19.847Z,5.28
2018-12-05T04:56:45.949Z,5.29
2018-12-05T04:57:12.056Z,5.26
2018-12-05T04:57:38.155Z,5.29
2018-12-05T04:58:04.295Z,5.14
2018-12-05T04:58:30.396Z,5.2
2018-12-05T04:58:56.500Z,5.18
2018-12-05T04:59:22.605Z,5.18
2018-12-05T04:59:48.708Z,5.15
2018-12-05T05:00:14.805Z,5.17
2018-12-05T05:00:40.942Z,5.14
2018-12-05T05:01:07.045Z,5.12
2018-12-05T05:01:33.149Z,5.15
2018-12-05T05:01:59.306Z,5.11
2018-12-05T05:02:25.410Z,5.08
2018-12-05T05:02:51.544Z,5.17
2018-12-05T05:03:17.644Z,5.12
2018-12-05T05:03:43.810Z,5.05
2018-12-05T05:04:09.916Z,5.21
2018-12-05T05:04:36.010Z,5.11
2018-12-05T05:05:02.137Z,5.12
2018-12-05T05:05:28.243Z,5.21
2018-12-05T05:05:54.400Z,5.11
2018-12-05T05:06:20.514Z,5.11
2018-12-05T05:06:47.613Z,5.15
2018-12-05T05:07:13.713Z,5.18
2018-12-05T05:07:39.837Z,5.11
2018-12-05T05:08:05.940Z,5.1
2018-12-05T05:08:32.051Z,5.15
2018-12-05T05:08:58.147Z,5.15
2018-12-05T05:09:24.260Z,5.21
2018-12-05T05:09:50.440Z,5.17
2018-12-05T05:10:16.550Z,5.17
2018-12-05T05:10:42.673Z,5.17
2018-12-05T05:11:08.778Z,5.17
2018-12-05T05:11:34.880Z,5.25
2018-12-05T05:12:00.984Z,5.26
2018-12-05T05:12:27.116Z,5.2
2018-12-05T05:12:53.223Z,5.28
2018-12-05T05:13:19.356Z,5.26
2018-12-05T05:13:45.513Z,5.21
2018-12-05T05:14:11.647Z,5.18
2018-12-05T05:14:37.754Z,5.15
2018-12-05T05:15:03.886Z,5.23
2018-12-05T05:15:30.001Z,5.12
2018-12-05T05:15:56.117Z,5.07
2018-12-05T05:16:22.241Z,5.11
2018-12-05T05:16:48.340Z,5.04
2018-12-05T05:17:14.444Z,4.97
2018-12-05T05:17:40.545Z,5.05
2018-12-05T05:18:06.658Z,5.08
2018-12-05T05:18:32.755Z,5.05
2018-12-05T05:18:58.862Z,5.07
2018-12-05T05:19:24.961Z,5.02
2018-12-05T05:19:51.102Z,5.05
2018-12-05T05:20:17.242Z,4.99
2018-12-05T05:20:43.344Z,5.04
2018-12-05T05:21:09.455Z,4.9
2018-12-05T05:21:35.556Z,5.11
2018-12-05T05:22:01.701Z,5.05
2018-12-05T05:22:27.805Z,4.97
2018-12-05T05:22:53.915Z,5.04
2018-12-05T05:23:20.023Z,5.1
2018-12-05T05:23:46.146Z,5.08
2018-12-05T05:24:12.287Z,5.1
2018-12-05T05:24:38.416Z,5.11
2018-12-05T05:25:04.518Z,5.12
2018-12-05T05:25:31.612Z,5.14
2018-12-05T05:25:57.710Z,5.12
2018-12-05T05:26:23.847Z,5.12
2018-12-05T05:26:49.982Z,5.07
2018-12-05T05:27:16.088Z,5.14
2018-12-05T05:27:45.807Z,5.12
2018-12-05T05:28:09.314Z,5.08
2018-12-05T05:28:35.423Z,5.1
2018-12-05T05:29:01.521Z,5.1
2018-12-05T05:29:27.634Z,5.12
2018-12-05T05:29:53.740Z,5.12
2018-12-05T05:30:19.849Z,5.1
2018-12-05T05:30:45.953Z,5.18
2018-12-05T05:31:12.051Z,5.11
2018-12-05T05:31:39.145Z,5.15
2018-12-05T05:32:05.324Z,5.1
2018-12-05T05:32:31.388Z,5.1
2018-12-05T05:32:57.490Z,5.14
2018-12-05T05:33:23.593Z,5.17
2018-12-05T05:33:49.747Z,5.18
2018-12-05T05:34:15.849Z,5.2
2018-12-05T05:34:41.949Z,5.12
2018-12-05T05:35:08.117Z,5.14
2018-12-05T05:35:34.243Z,5.1
2018-12-05T05:36:00.358Z,5.05
2018-12-05T05:36:26.466Z,5.07
2018-12-05T05:36:52.601Z,4.94
2018-12-05T05:37:18.705Z,5.04
2018-12-05T05:37:44.822Z,4.99
2018-12-05T05:38:10.920Z,4.97
2018-12-05T05:38:37.053Z,4.9
2018-12-05T05:39:03.151Z,4.93
2018-12-05T05:39:29.254Z,4.93
2018-12-05T05:39:55.357Z,4.84
2018-12-05T05:40:21.463Z,4.87
2018-12-05T05:40:47.624Z,4.77
2018-12-05T05:41:13.734Z,4.84
2018-12-05T05:41:39.840Z,4.75
2018-12-05T05:42:05.947Z,4.74
2018-12-05T05:42:32.047Z,4.77
2018-12-05T05:42:58.153Z,4.84
2018-12-05T05:43:24.254Z,4.77
2018-12-05T05:43:50.361Z,4.8
2018-12-05T05:44:16.474Z,4.75
2018-12-05T05:44:42.577Z,4.82
2018-12-05T05:45:08.681Z,4.84
2018-12-05T05:45:34.813Z,4.92
2018-12-05T05:46:00.921Z,4.9
2018-12-05T05:46:27.025Z,4.96
2018-12-05T05:46:53.133Z,4.9
2018-12-05T05:47:19.287Z,4.9
2018-12-05T05:47:45.433Z,4.93
2018-12-05T05:48:11.558Z,4.92
2018-12-05T05:48:37.663Z,4.94
2018-12-05T05:49:03.765Z,4.97